createdAt,value
2018-04-14T00:01:20.813Z,84.42
2018-04-14T00:03:49.120Z,84.25
2018-04-14T00:06:18.247Z,84.06
2018-04-14T00:08:46.585Z,83.89
2018-04-14T00:11:15.778Z,83.60
2018-04-14T00:13:44.042Z,83.33
2018-04-14T00:16:12.385Z,83.08
2018-04-14T00:18:40.739Z,82.80
2018-04-14T00:21:09.853Z,82.48
2018-04-14T00:23:38.934Z,82.38
2018-04-14T00:26:08.029Z,82.34
2018-04-14T00:28:36.379Z,82.21
2018-04-14T00:31:04.723Z,82.06
2018-04-14T00:33:33.858Z,81.99
2018-04-14T00:36:02.184Z,81.85
2018-04-14T00:38:32.008Z,81.73
2018-04-14T00:41:01.118Z,81.69
2018-04-14T00:43:29.456Z,81.75
2018-04-14T00:45:57.792Z,81.68
2018-04-14T00:48:26.228Z,81.65
2018-04-14T00:50:54.556Z,81.62
2018-04-14T00:53:40.691Z,81.54
2018-04-14T00:56:09.328Z,81.53
2018-04-14T00:58:37.653Z,81.42
2018-04-14T01:01:05.984Z,81.22
2018-04-14T01:03:34.304Z,81.17
2018-04-14T01:06:02.710Z,81.19
2018-04-14T01:08:31.060Z,81.10
2018-04-14T01:10:59.390Z,80.94
2018-04-14T01:13:27.752Z,80.94
2018-04-14T01:15:56.091Z,80.84
2018-04-14T01:18:24.398Z,81.00
2018-04-14T01:20:52.731Z,81.23
2018-04-14T01:23:21.040Z,81.39
2018-04-14T01:25:49.376Z,81.46
2018-04-14T01:28:18.456Z,81.44
2018-04-14T01:30:46.813Z,81.49
2018-04-14T01:33:15.170Z,81.39
2018-04-14T01:35:43.529Z,81.42
2018-04-14T01:38:12.649Z,81.50
2018-04-14T01:40:41.003Z,81.54
2018-04-14T01:43:10.085Z,81.36
2018-04-14T01:45:38.432Z,81.39
2018-04-14T01:48:06.821Z,81.36
2018-04-14T01:50:35.163Z,81.27
2018-04-14T01:53:03.487Z,81.40
2018-04-14T01:55:31.803Z,81.49
2018-04-14T01:58:00.109Z,81.42
2018-04-14T02:00:28.456Z,81.39
2018-04-14T02:02:56.840Z,81.31
2018-04-14T02:05:25.150Z,81.25
2018-04-14T02:07:54.287Z,81.19
2018-04-14T02:10:22.611Z,81.18
2018-04-14T02:12:51.727Z,81.24
2018-04-14T02:15:20.089Z,81.21
2018-04-14T02:17:48.888Z,81.04
2018-04-14T02:20:17.208Z,81.06
2018-04-14T02:22:45.505Z,81.08
2018-04-14T02:25:13.870Z,81.01
2018-04-14T02:27:42.946Z,80.94
2018-04-14T02:30:11.288Z,80.92
2018-04-14T02:32:39.653Z,80.82
2018-04-14T02:35:08.034Z,80.87
2018-04-14T02:37:36.437Z,80.80
2018-04-14T02:40:04.730Z,80.67
2018-04-14T02:42:33.054Z,80.44
2018-04-14T02:45:01.407Z,80.38
2018-04-14T02:47:29.742Z,80.70
2018-04-14T02:49:58.049Z,80.63
2018-04-14T02:52:26.678Z,80.57
2018-04-14T02:54:55.038Z,80.59
2018-04-14T02:57:24.115Z,80.67
2018-04-14T02:59:52.465Z,80.83
2018-04-14T03:02:20.771Z,80.69
2018-04-14T03:04:49.061Z,80.70
2018-04-14T03:07:17.400Z,80.69
2018-04-14T03:09:45.753Z,80.65
2018-04-14T03:12:14.846Z,80.49
2018-04-14T03:14:43.937Z,80.50
2018-04-14T03:17:13.012Z,80.67
2018-04-14T03:19:41.695Z,80.51
2018-04-14T03:22:10.030Z,80.45
2018-04-14T03:24:38.364Z,80.63
2018-04-14T03:27:06.662Z,80.45
2018-04-14T03:29:35.008Z,80.45
2018-04-14T03:32:03.325Z,80.23
2018-04-14T03:34:32.406Z,80.19
2018-04-14T03:37:00.778Z,80.20
2018-04-14T03:39:29.068Z,80.19
2018-04-14T03:41:57.409Z,80.15
2018-04-14T03:44:25.740Z,80.11
2018-04-14T03:46:54.086Z,79.94
2018-04-14T03:49:22.400Z,79.86
2018-04-14T03:51:50.722Z,79.68
2018-04-14T03:54:19.075Z,79.47
2018-04-14T03:56:48.165Z,79.28
2018-04-14T03:59:17.312Z,79.08
2018-04-14T04:01:45.651Z,79.00
2018-04-14T04:04:13.958Z,78.73
2018-04-14T04:06:42.314Z,78.58
2018-04-14T04:09:10.682Z,78.50
2018-04-14T04:11:39.022Z,78.46
2018-04-14T04:14:07.342Z,78.48
2018-04-14T04:16:35.659Z,78.25
2018-04-14T04:19:21.906Z,78.00
2018-04-14T04:22:07.868Z,77.73
2018-04-14T04:24:53.883Z,77.53
2018-04-14T04:27:22.214Z,77.25
2018-04-14T04:29:51.397Z,77.18
2018-04-14T04:32:20.508Z,76.99
2018-04-14T04:34:48.814Z,76.99
2018-04-14T04:37:17.276Z,76.82
2018-04-14T04:39:45.560Z,76.72
2018-04-14T04:42:13.916Z,76.52
2018-04-14T04:44:43.000Z,75.91
2018-04-14T04:47:11.337Z,76.07
2018-04-14T04:49:39.692Z,76.02
2018-04-14T04:52:08.017Z,75.86
2018-04-14T04:54:36.438Z,75.87
2018-04-14T04:57:05.562Z,75.78
2018-04-14T04:59:33.907Z,75.71
2018-04-14T05:02:02.373Z,75.61
2018-04-14T05:04:30.730Z,75.51
2018-04-14T05:06:59.072Z,75.55
2018-04-14T05:09:28.255Z,75.40
2018-04-14T05:11:56.585Z,75.43
2018-04-14T05:14:24.944Z,75.25
2018-04-14T05:16:53.723Z,75.18
2018-04-14T05:19:22.856Z,75.20
2018-04-14T05:21:51.268Z,75.03
2018-04-14T05:24:20.086Z,74.80
2018-04-14T05:26:48.466Z,74.81
2018-04-14T05:29:16.826Z,74.82
2018-04-14T05:31:45.146Z,74.79
2018-04-14T05:34:13.480Z,74.56
2018-04-14T05:36:41.820Z,74.26
2018-04-14T05:39:10.968Z,74.03
2018-04-14T05:41:39.274Z,73.56
2018-04-14T05:44:07.600Z,73.04
2018-04-14T05:46:35.958Z,72.48
2018-04-14T05:49:05.064Z,71.83
2018-04-14T05:51:33.450Z,71.41
2018-04-14T05:54:02.570Z,71.10
2018-04-14T05:56:30.890Z,70.66
2018-04-14T05:58:59.189Z,70.17
2018-04-14T06:01:27.506Z,69.77
2018-04-14T06:03:56.484Z,69.39
2018-04-14T06:06:24.806Z,68.74
2018-04-14T06:08:53.119Z,68.52
2018-04-14T06:11:21.478Z,68.28
2018-04-14T06:13:49.827Z,67.88
2018-04-14T06:16:18.148Z,67.49
2018-04-14T06:18:46.523Z,66.83
2018-04-14T06:21:14.902Z,66.15
2018-04-14T06:23:44.020Z,65.53
2018-04-14T06:26:12.357Z,65.30
2018-04-14T06:28:40.736Z,65.20
2018-04-14T06:31:09.092Z,65.00
2018-04-14T06:33:38.174Z,64.65
2018-04-14T06:36:06.540Z,64.66
2018-04-14T06:38:34.874Z,64.28
2018-04-14T06:41:03.224Z,64.04
2018-04-14T06:43:31.585Z,64.04
2018-04-14T06:45:59.953Z,64.05
2018-04-14T06:48:28.317Z,64.03
2018-04-14T06:50:56.648Z,63.78
2018-04-14T06:53:25.066Z,63.37
2018-04-14T06:55:54.173Z,63.19
2018-04-14T06:58:22.615Z,62.84
2018-04-14T07:00:51.709Z,62.29
2018-04-14T07:03:20.062Z,61.93
2018-04-14T07:05:49.228Z,62.10
2018-04-14T07:08:18.442Z,61.95
2018-04-14T07:10:46.979Z,61.74
2018-04-14T07:13:15.361Z,61.15
2018-04-14T07:15:43.700Z,60.90
2018-04-14T07:18:12.467Z,60.63
2018-04-14T07:20:40.835Z,60.63
2018-04-14T07:23:09.147Z,60.11
2018-04-14T07:25:37.495Z,59.63
2018-04-14T07:28:06.830Z,59.39
2018-04-14T07:30:35.206Z,58.98
2018-04-14T07:33:03.533Z,58.13
2018-04-14T07:35:32.501Z,57.52
2018-04-14T07:38:00.894Z,57.21
2018-04-14T07:40:29.703Z,56.53
2018-04-14T07:42:58.879Z,55.63
2018-04-14T07:45:27.221Z,55.43
2018-04-14T07:47:56.406Z,54.65
2018-04-14T07:50:24.767Z,53.78
2018-04-14T07:52:53.113Z,53.14
2018-04-14T07:55:21.482Z,52.78
2018-04-14T07:57:49.847Z,52.30
2018-04-14T08:00:18.943Z,52.00
2018-04-14T08:02:50.297Z,51.54
2018-04-14T08:05:19.373Z,50.96
2018-04-14T08:07:47.716Z,49.76
2018-04-14T08:10:16.052Z,49.30
2018-04-14T08:12:44.353Z,49.26
2018-04-14T08:15:12.661Z,49.25
2018-04-14T08:17:40.988Z,48.93
2018-04-14T08:20:09.310Z,49.08
2018-04-14T08:22:37.678Z,49.03
2018-04-14T08:25:06.026Z,48.56
2018-04-14T08:27:34.376Z,47.85
2018-04-14T08:30:02.916Z,47.73
2018-04-14T08:32:31.289Z,47.85
2018-04-14T08:34:59.665Z,47.76
2018-04-14T08:37:28.865Z,47.50
2018-04-14T08:39:57.650Z,47.30
2018-04-14T08:42:25.997Z,46.72
2018-04-14T08:44:54.370Z,46.23
2018-04-14T08:47:22.767Z,45.37
2018-04-14T08:49:51.178Z,44.88
2018-04-14T08:52:19.551Z,44.74
2018-04-14T08:54:47.879Z,44.81
2018-04-14T08:57:16.239Z,44.64
2018-04-14T08:59:45.353Z,44.79
2018-04-14T09:02:13.679Z,44.77
2018-04-14T09:04:42.015Z,44.36
2018-04-14T09:07:11.119Z,44.62
2018-04-14T09:09:39.451Z,44.74
2018-04-14T09:12:07.782Z,45.09
2018-04-14T09:14:36.886Z,44.94
2018-04-14T09:17:05.234Z,44.94
2018-04-14T09:19:33.572Z,44.93
2018-04-14T09:22:01.886Z,45.05
2018-04-14T09:24:30.243Z,45.19
2018-04-14T09:26:59.394Z,45.00
2018-04-14T09:29:28.514Z,44.72
2018-04-14T09:31:56.857Z,44.61
2018-04-14T09:34:25.223Z,44.77
2018-04-14T09:36:53.551Z,44.94
2018-04-14T09:39:22.661Z,45.61
2018-04-14T09:41:50.999Z,45.13
2018-04-14T09:44:19.299Z,45.14
2018-04-14T09:46:48.404Z,44.85
2018-04-14T09:49:17.495Z,44.87
2018-04-14T09:51:46.603Z,44.81
2018-04-14T09:54:15.731Z,44.49
2018-04-14T09:56:44.095Z,44.55
2018-04-14T09:59:12.481Z,44.85
2018-04-14T10:01:40.856Z,44.62
2018-04-14T10:04:09.977Z,45.14
2018-04-14T10:06:38.361Z,45.32
2018-04-14T10:09:06.757Z,45.23
2018-04-14T10:11:35.096Z,45.42
2018-04-14T10:14:04.559Z,45.37
2018-04-14T10:16:32.931Z,45.05
2018-04-14T10:19:01.459Z,44.98
2018-04-14T10:21:29.785Z,44.87
2018-04-14T10:23:58.129Z,45.19
2018-04-14T10:26:27.958Z,44.80
2018-04-14T10:28:56.308Z,44.44
2018-04-14T10:31:25.592Z,44.28
2018-04-14T10:33:53.908Z,43.47
2018-04-14T10:36:23.048Z,43.29
2018-04-14T10:38:51.392Z,42.42
2018-04-14T10:41:20.516Z,41.35
2018-04-14T10:43:49.598Z,40.74
2018-04-14T10:46:18.726Z,39.93
2018-04-14T10:48:47.067Z,39.56
2018-04-14T10:51:15.407Z,38.98
2018-04-14T10:53:43.795Z,38.66
2018-04-14T10:56:12.110Z,38.13
2018-04-14T10:58:40.458Z,37.59
2018-04-14T11:01:08.840Z,37.42
2018-04-14T11:03:37.222Z,37.46
2018-04-14T11:06:05.561Z,37.00
2018-04-14T11:08:34.658Z,36.68
2018-04-14T11:11:03.763Z,35.92
2018-04-14T11:13:32.172Z,35.33
2018-04-14T11:16:00.504Z,35.16
2018-04-14T11:18:28.817Z,34.96
2018-04-14T11:20:57.157Z,34.85
2018-04-14T11:23:25.670Z,35.14
2018-04-14T11:25:54.834Z,35.05
2018-04-14T11:28:23.177Z,35.12
2018-04-14T11:30:51.507Z,34.78
2018-04-14T11:33:19.891Z,34.47
2018-04-14T11:35:48.221Z,34.40
2018-04-14T11:38:16.566Z,34.51
2018-04-14T11:40:45.657Z,34.95
2018-04-14T11:43:13.999Z,35.17
2018-04-14T11:45:43.293Z,35.44
2018-04-14T11:48:11.637Z,35.55
2018-04-14T11:50:39.988Z,35.59
2018-04-14T11:53:08.353Z,35.56
2018-04-14T11:55:36.698Z,36.03
2018-04-14T11:58:05.033Z,36.13
2018-04-14T12:00:33.355Z,36.23
2018-04-14T12:03:02.328Z,36.50
2018-04-14T12:05:30.631Z,36.66
2018-04-14T12:07:59.712Z,36.74
2018-04-14T12:10:28.857Z,36.08
2018-04-14T12:12:57.209Z,35.93
2018-04-14T12:15:26.339Z,35.33
2018-04-14T12:17:54.827Z,35.59
2018-04-14T12:20:23.203Z,35.17
2018-04-14T12:22:51.691Z,35.00
2018-04-14T12:25:20.293Z,35.17
2018-04-14T12:27:48.593Z,34.91
2018-04-14T12:30:18.451Z,34.62
2018-04-14T12:32:47.579Z,34.23
2018-04-14T12:35:15.939Z,33.92
2018-04-14T12:37:44.527Z,33.72
2018-04-14T12:40:13.497Z,33.60
2018-04-14T12:42:41.865Z,33.35
2018-04-14T12:45:10.225Z,33.81
2018-04-14T12:47:39.352Z,33.32
2018-04-14T12:50:07.702Z,33.72
2018-04-14T12:52:36.031Z,34.10
2018-04-14T12:55:04.908Z,33.41
2018-04-14T12:57:33.229Z,32.94
2018-04-14T13:00:01.552Z,32.38
2018-04-14T13:02:30.708Z,31.36
2018-04-14T13:04:59.038Z,29.29
2018-04-14T13:07:27.395Z,27.38
2018-04-14T13:09:55.714Z,26.44
2018-04-14T13:12:24.064Z,24.85
2018-04-14T13:14:52.425Z,24.55
2018-04-14T13:17:20.812Z,25.10
2018-04-14T13:19:49.208Z,25.55
2018-04-14T13:22:17.587Z,25.18
2018-04-14T13:24:46.685Z,24.84
2018-04-14T13:27:15.069Z,24.48
2018-04-14T13:29:43.412Z,22.98
2018-04-14T13:32:12.515Z,22.77
2018-04-14T13:34:41.625Z,23.52
2018-04-14T13:37:10.801Z,22.82
2018-04-14T13:39:39.971Z,21.79
2018-04-14T13:42:08.331Z,21.32
2018-04-14T13:44:36.651Z,21.12
2018-04-14T13:47:05.000Z,20.86
2018-04-14T13:49:33.371Z,21.55
2018-04-14T13:52:02.508Z,22.26
2018-04-14T13:54:30.852Z,23.01
2018-04-14T13:56:59.289Z,24.21
2018-04-14T13:59:27.644Z,24.82
2018-04-14T14:01:55.966Z,24.87
2018-04-14T14:04:25.450Z,25.33
2018-04-14T14:06:54.544Z,25.32
2018-04-14T14:09:22.924Z,24.89
2018-04-14T14:11:52.202Z,25.11
2018-04-14T14:14:20.626Z,25.30
2018-04-14T14:16:49.009Z,25.46
2018-04-14T14:19:18.403Z,23.47
2018-04-14T14:21:47.302Z,23.01
2018-04-14T14:24:15.663Z,22.40
2018-04-14T14:26:44.016Z,21.48
2018-04-14T14:29:12.991Z,21.33
2018-04-14T14:31:42.122Z,21.04
2018-04-14T14:34:10.457Z,21.58
2018-04-14T14:36:38.838Z,21.67
2018-04-14T14:39:08.471Z,20.66
2018-04-14T14:41:37.580Z,17.86
2018-04-14T14:44:06.083Z,17.66
2018-04-14T14:46:34.488Z,17.60
2018-04-14T14:49:02.961Z,17.63
2018-04-14T14:51:31.633Z,17.99
2018-04-14T14:54:00.062Z,18.33
2018-04-14T14:56:30.774Z,18.62
2018-04-14T14:58:59.137Z,19.77
2018-04-14T15:01:27.693Z,19.51
2018-04-14T15:03:57.579Z,20.41
2018-04-14T15:06:27.406Z,20.63
2018-04-14T15:08:55.732Z,20.72
2018-04-14T15:11:24.101Z,21.33
2018-04-14T15:13:52.502Z,21.43
2018-04-14T15:16:20.926Z,22.04
2018-04-14T15:18:49.294Z,22.38
2018-04-14T15:21:17.651Z,22.70
2018-04-14T15:23:45.977Z,22.64
2018-04-14T15:26:14.300Z,22.32
2018-04-14T15:28:43.366Z,22.09
2018-04-14T15:31:11.703Z,21.78
2018-04-14T15:33:40.011Z,22.00
2018-04-14T15:36:08.397Z,22.05
2018-04-14T15:38:36.730Z,22.78
2018-04-14T15:41:06.622Z,23.53
2018-04-14T15:43:35.008Z,24.79
2018-04-14T15:46:04.456Z,25.46
2018-04-14T15:48:32.829Z,25.43
2018-04-14T15:51:01.145Z,24.77
2018-04-14T15:53:29.481Z,24.13
2018-04-14T15:55:58.574Z,24.89
2018-04-14T15:58:27.710Z,25.92
2018-04-14T16:00:56.023Z,27.00
2018-04-14T16:03:24.344Z,28.46
2018-04-14T16:05:52.691Z,29.66
2018-04-14T16:08:21.087Z,31.05
2018-04-14T16:10:50.224Z,31.38
2018-04-14T16:13:18.683Z,31.12
2018-04-14T16:15:47.785Z,31.15
2018-04-14T16:18:16.154Z,30.60
2018-04-14T16:20:45.115Z,29.90
2018-04-14T16:23:13.498Z,29.70
2018-04-14T16:25:41.840Z,29.41
2018-04-14T16:28:10.565Z,29.41
2018-04-14T16:30:38.879Z,28.54
2018-04-14T16:33:07.225Z,28.24
2018-04-14T16:35:37.128Z,27.69
2018-04-14T16:38:05.572Z,27.71
2018-04-14T16:40:34.665Z,27.93
2018-04-14T16:43:03.028Z,28.44
2018-04-14T16:45:31.386Z,28.94
2018-04-14T16:47:59.781Z,29.88
2018-04-14T16:50:28.176Z,30.98
2018-04-14T16:52:56.578Z,31.06
2018-04-14T16:55:25.779Z,31.13
2018-04-14T16:57:54.136Z,30.79
2018-04-14T17:00:22.487Z,30.63
2018-04-14T17:02:50.880Z,30.85
2018-04-14T17:05:19.217Z,31.15
2018-04-14T17:07:47.527Z,31.49
2018-04-14T17:10:15.877Z,31.29
2018-04-14T17:12:45.000Z,31.69
2018-04-14T17:15:14.141Z,31.86
2018-04-14T17:17:43.279Z,32.06
2018-04-14T17:20:12.413Z,32.84
2018-04-14T17:22:42.300Z,33.21
2018-04-14T17:25:12.090Z,33.51
2018-04-14T17:27:41.915Z,33.82
2018-04-14T17:30:10.478Z,34.30
2018-04-14T17:32:38.888Z,35.12
2018-04-14T17:35:10.024Z,36.03
2018-04-14T17:37:41.458Z,37.16
2018-04-14T17:40:11.046Z,38.04
2018-04-14T17:42:40.434Z,38.44
2018-04-14T17:45:08.950Z,39.29
2018-04-14T17:47:37.528Z,40.15
2018-04-14T17:50:05.888Z,40.89
2018-04-14T17:52:35.147Z,41.86
2018-04-14T17:55:03.599Z,42.64
2018-04-14T17:57:32.410Z,43.45
2018-04-14T18:00:01.078Z,44.35
2018-04-14T18:02:29.735Z,45.02
2018-04-14T18:04:58.315Z,45.75
2018-04-14T18:07:26.812Z,46.05
2018-04-14T18:09:58.102Z,46.35
2018-04-14T18:12:26.529Z,47.29
2018-04-14T18:14:54.983Z,47.99
2018-04-14T18:17:23.528Z,49.18
2018-04-14T18:19:52.192Z,49.44
2018-04-14T18:22:20.617Z,49.80
2018-04-14T18:24:49.103Z,50.62
2018-04-14T18:27:17.495Z,51.23
2018-04-14T18:29:47.577Z,51.76
2018-04-14T18:32:16.666Z,52.58
2018-04-14T18:34:45.004Z,53.39
2018-04-14T18:37:13.329Z,54.29
2018-04-14T18:39:41.653Z,55.33
2018-04-14T18:42:10.843Z,56.27
2018-04-14T18:44:39.254Z,56.78
2018-04-14T18:47:08.446Z,57.36
2018-04-14T18:49:36.811Z,58.09
2018-04-14T18:52:05.128Z,58.84
2018-04-14T18:54:33.553Z,59.67
2018-04-14T18:57:02.115Z,59.83
2018-04-14T18:59:31.257Z,60.45
2018-04-14T19:01:59.602Z,61.33
2018-04-14T19:04:28.651Z,61.38
2018-04-14T19:06:57.040Z,61.68
2018-04-14T19:09:25.392Z,62.27
2018-04-14T19:11:53.781Z,62.63
2018-04-14T19:14:22.156Z,62.58
2018-04-14T19:16:50.490Z,62.93
2018-04-14T19:19:18.865Z,63.43
2018-04-14T19:21:47.430Z,64.17
2018-04-14T19:24:18.761Z,64.37
2018-04-14T19:26:47.230Z,64.40
2018-04-14T19:29:16.312Z,65.06
2018-04-14T19:31:44.634Z,64.99
2018-04-14T19:34:12.996Z,65.63
2018-04-14T19:36:42.081Z,65.58
2018-04-14T19:39:10.383Z,65.81
2018-04-14T19:41:39.500Z,65.85
2018-04-14T19:44:08.127Z,65.88
2018-04-14T19:46:36.438Z,66.11
2018-04-14T19:49:04.824Z,66.14
2018-04-14T19:51:33.147Z,66.24
2018-04-14T19:54:01.460Z,66.60
2018-04-14T19:56:29.975Z,66.74
2018-04-14T19:58:59.112Z,66.66
2018-04-14T20:01:27.438Z,66.80
2018-04-14T20:03:55.790Z,67.10
2018-04-14T20:06:24.098Z,67.38
2018-04-14T20:08:52.420Z,67.77
2018-04-14T20:11:20.799Z,67.71
2018-04-14T20:13:49.320Z,68.05
2018-04-14T20:16:17.750Z,68.09
2018-04-14T20:18:46.151Z,68.57
2018-04-14T20:21:16.034Z,68.75
2018-04-14T20:23:44.464Z,69.17
2018-04-14T20:26:12.851Z,69.47
2018-04-14T20:28:41.683Z,69.93
2018-04-14T20:31:11.021Z,69.98
2018-04-14T20:33:39.466Z,70.40
2018-04-14T20:36:07.803Z,70.43
2018-04-14T20:38:36.160Z,70.47
2018-04-14T20:41:04.553Z,70.52
2018-04-14T20:43:32.884Z,70.76
2018-04-14T20:46:01.210Z,71.02
2018-04-14T20:48:30.313Z,71.21
2018-04-14T20:50:59.431Z,71.42
2018-04-14T20:53:27.794Z,71.77
2018-04-14T20:55:56.935Z,71.95
2018-04-14T20:58:25.283Z,72.32
2018-04-14T21:00:54.397Z,72.69
2018-04-14T21:03:22.783Z,72.88
2018-04-14T21:05:51.125Z,73.13
2018-04-14T21:08:19.504Z,73.48
2018-04-14T21:10:48.658Z,73.74
2018-04-14T21:13:16.990Z,74.13
2018-04-14T21:15:46.140Z,74.28
2018-04-14T21:18:14.493Z,74.36
2018-04-14T21:20:43.611Z,74.41
2018-04-14T21:23:11.953Z,74.63
2018-04-14T21:25:40.313Z,74.71
2018-04-14T21:28:08.659Z,74.95
2018-04-14T21:30:37.009Z,75.11
2018-04-14T21:33:06.123Z,75.13
2018-04-14T21:35:34.495Z,75.03
2018-04-14T21:38:03.617Z,74.97
2018-04-14T21:40:31.987Z,74.95
2018-04-14T21:43:00.995Z,74.71
2018-04-14T21:45:29.535Z,74.61
2018-04-14T21:47:57.887Z,74.46
2018-04-14T21:50:26.361Z,74.28
2018-04-14T21:52:54.782Z,74.20
2018-04-14T21:55:23.131Z,74.16
2018-04-14T21:57:51.429Z,74.35
2018-04-14T22:00:19.767Z,74.31
2018-04-14T22:02:48.123Z,74.07
2018-04-14T22:05:17.261Z,73.91
2018-04-14T22:07:46.347Z,73.70
2018-04-14T22:10:14.684Z,73.50
2018-04-14T22:12:43.056Z,73.17
2018-04-14T22:15:11.343Z,73.01
2018-04-14T22:17:39.715Z,72.87
2018-04-14T22:20:08.062Z,72.61
2018-04-14T22:22:36.376Z,72.26
2018-04-14T22:25:04.702Z,72.04
2018-04-14T22:27:33.050Z,71.87
2018-04-14T22:30:02.161Z,71.66
2018-04-14T22:32:30.598Z,71.45
2018-04-14T22:34:58.942Z,71.38
2018-04-14T22:37:27.560Z,71.28
2018-04-14T22:39:55.865Z,71.15
2018-04-14T22:42:24.227Z,70.91
2018-04-14T22:44:52.561Z,70.75
2018-04-14T22:47:21.539Z,70.59
2018-04-14T22:49:49.919Z,70.44
2018-04-14T22:52:18.275Z,70.30
2018-04-14T22:54:46.615Z,70.23
2018-04-14T22:57:15.729Z,70.17
2018-04-14T22:59:44.069Z,70.14
2018-04-14T23:02:12.419Z,70.01
2018-04-14T23:04:40.766Z,70.09
2018-04-14T23:07:09.930Z,70.08
2018-04-14T23:09:38.275Z,70.22
2018-04-14T23:12:06.659Z,70.60
2018-04-14T23:14:34.998Z,71.01
2018-04-14T23:17:03.355Z,71.48
2018-04-14T23:19:31.673Z,72.36
2018-04-14T23:22:00.811Z,72.84
2018-04-14T23:24:29.167Z,73.56
2018-04-14T23:26:57.500Z,74.25
2018-04-14T23:29:25.849Z,74.75
2018-04-14T23:31:54.190Z,75.44
2018-04-14T23:34:22.516Z,75.99
2018-04-14T23:36:50.829Z,76.46
2018-04-14T23:39:19.202Z,76.88
2018-04-14T23:41:47.522Z,77.42
2018-04-14T23:44:16.673Z,77.89
2018-04-14T23:46:45.233Z,78.22
2018-04-14T23:49:13.656Z,78.60
2018-04-14T23:51:42.468Z,79.10
2018-04-14T23:54:10.802Z,79.56
2018-04-14T23:56:39.130Z,80.06
2018-04-14T23:59:07.490Z,80.59
